sensor_id;sensor_type;location;lat;lon;timestamp;pressure;altitude;pressure_sealevel;temperature;humidity
70690;BME280;58267;51.156;17.044;2023-01-27T00:00:54;100613.90;;;3.44;49.50
70690;BME280;58267;51.156;17.044;2023-01-27T00:03:20;100614.24;;;3.65;48.16
70690;BME280;58267;51.156;17.044;2023-01-27T00:05:46;100612.20;;;3.97;47.35
70690;BME280;58267;51.156;17.044;2023-01-27T00:08:11;100607.08;;;4.33;46.36
70690;BME280;58267;51.156;17.044;2023-01-27T00:10:36;100604.23;;;4.37;45.72
70690;BME280;58267;51.156;17.044;2023-01-27T00:13:01;100603.01;;;4.50;45.44
70690;BME280;58267;51.156;17.044;2023-01-27T00:15:28;100598.75;;;4.66;45.24
70690;BME280;58267;51.156;17.044;2023-01-27T00:17:53;100598.66;;;4.77;44.90
70690;BME280;58267;51.156;17.044;2023-01-27T00:20:19;100601.07;;;4.77;44.60
70690;BME280;58267;51.156;17.044;2023-01-27T00:22:44;100600.49;;;4.84;44.29
70690;BME280;58267;51.156;17.044;2023-01-27T00:25:11;100601.73;;;4.93;44.14
70690;BME280;58267;51.156;17.044;2023-01-27T00:27:38;100600.56;;;5.11;43.67
70690;BME280;58267;51.156;17.044;2023-01-27T00:30:03;100603.68;;;4.72;44.39
70690;BME280;58267;51.156;17.044;2023-01-27T00:32:28;100606.66;;;4.86;44.12
70690;BME280;58267;51.156;17.044;2023-01-27T00:34:55;100610.68;;;4.91;43.80
70690;BME280;58267;51.156;17.044;2023-01-27T00:37:19;100612.47;;;4.93;43.82
70690;BME280;58267;51.156;17.044;2023-01-27T00:39:44;100613.05;;;4.88;43.88
70690;BME280;58267;51.156;17.044;2023-01-27T00:42:09;100615.73;;;4.98;43.72
70690;BME280;58267;51.156;17.044;2023-01-27T00:44:35;100618.88;;;4.97;43.74
70690;BME280;58267;51.156;17.044;2023-01-27T00:47:00;100618.21;;;4.75;43.74
70690;BME280;58267;51.156;17.044;2023-01-27T00:49:26;100619.79;;;5.07;43.62
70690;BME280;58267;51.156;17.044;2023-01-27T00:51:51;100617.48;;;4.81;43.56
70690;BME280;58267;51.156;17.044;2023-01-27T00:54:17;100619.20;;;5.13;43.45
70690;BME280;58267;51.156;17.044;2023-01-27T00:56:42;100619.07;;;5.15;43.48
70690;BME280;58267;51.156;17.044;2023-01-27T00:59:08;100623.58;;;5.17;43.58
70690;BME280;58267;51.156;17.044;2023-01-27T01:01:39;100625.05;;;5.22;43.39
70690;BME280;58267;51.156;17.044;2023-01-27T01:03:59;100628.04;;;5.19;43.41
70690;BME280;58267;51.156;17.044;2023-01-27T01:06:24;100626.65;;;5.22;43.53
70690;BME280;58267;51.156;17.044;2023-01-27T01:08:49;100628.35;;;5.34;43.44
70690;BME280;58267;51.156;17.044;2023-01-27T01:11:16;100626.51;;;5.15;43.37
70690;BME280;58267;51.156;17.044;2023-01-27T01:13:41;100625.19;;;5.09;43.38
70690;BME280;58267;51.156;17.044;2023-01-27T01:16:08;100624.27;;;5.18;43.43
70690;BME280;58267;51.156;17.044;2023-01-27T01:18:32;100622.83;;;5.36;43.43
70690;BME280;58267;51.156;17.044;2023-01-27T01:20:56;100616.53;;;5.23;43.27
70690;BME280;58267;51.156;17.044;2023-01-27T01:23:22;100618.30;;;5.44;43.30
70690;BME280;58267;51.156;17.044;2023-01-27T01:25:52;100619.66;;;5.39;43.25
70690;BME280;58267;51.156;17.044;2023-01-27T01:28:13;100619.55;;;5.18;43.20
70690;BME280;58267;51.156;17.044;2023-01-27T01:30:39;100620.50;;;5.14;43.27
70690;BME280;58267;51.156;17.044;2023-01-27T01:33:04;100619.59;;;5.19;43.33
70690;BME280;58267;51.156;17.044;2023-01-27T01:35:30;100615.86;;;5.31;43.09
70690;BME280;58267;51.156;17.044;2023-01-27T01:37:54;100615.60;;;5.41;43.46
70690;BME280;58267;51.156;17.044;2023-01-27T01:40:20;100615.49;;;5.43;43.34
70690;BME280;58267;51.156;17.044;2023-01-27T01:42:52;100611.22;;;5.58;42.76
70690;BME280;58267;51.156;17.044;2023-01-27T01:47:37;100614.73;;;5.28;43.42
70690;BME280;58267;51.156;17.044;2023-01-27T01:50:03;100612.83;;;5.29;43.39
70690;BME280;58267;51.156;17.044;2023-01-27T01:52:28;100613.23;;;5.32;43.32
70690;BME280;58267;51.156;17.044;2023-01-27T01:54:55;100617.33;;;5.12;43.20
70690;BME280;58267;51.156;17.044;2023-01-27T01:57:21;100620.04;;;5.74;42.46
70690;BME280;58267;51.156;17.044;2023-01-27T01:59:47;100618.80;;;4.82;43.23
70690;BME280;58267;51.156;17.044;2023-01-27T02:02:13;100618.69;;;4.76;43.36
70690;BME280;58267;51.156;17.044;2023-01-27T02:04:37;100619.08;;;5.25;43.39
70690;BME280;58267;51.156;17.044;2023-01-27T02:07:05;100621.18;;;5.24;43.39
70690;BME280;58267;51.156;17.044;2023-01-27T02:09:27;100622.11;;;4.99;43.45
70690;BME280;58267;51.156;17.044;2023-01-27T02:11:51;100623.97;;;5.30;43.36
70690;BME280;58267;51.156;17.044;2023-01-27T02:14:18;100621.30;;;4.96;43.78
70690;BME280;58267;51.156;17.044;2023-01-27T02:16:43;100622.87;;;4.86;44.04
70690;BME280;58267;51.156;17.044;2023-01-27T02:19:17;100622.82;;;5.05;43.87
70690;BME280;58267;51.156;17.044;2023-01-27T02:21:35;100625.21;;;5.23;43.60
70690;BME280;58267;51.156;17.044;2023-01-27T02:24:02;100626.46;;;5.38;43.06
70690;BME280;58267;51.156;17.044;2023-01-27T02:26:29;100626.06;;;5.14;43.65
70690;BME280;58267;51.156;17.044;2023-01-27T02:28:54;100626.96;;;5.10;43.71
70690;BME280;58267;51.156;17.044;2023-01-27T02:31:17;100627.47;;;5.25;43.51
70690;BME280;58267;51.156;17.044;2023-01-27T02:33:43;100625.33;;;5.30;43.42
70690;BME280;58267;51.156;17.044;2023-01-27T02:36:12;100625.84;;;4.84;43.38
70690;BME280;58267;51.156;17.044;2023-01-27T02:38:36;100625.60;;;5.15;43.31
70690;BME280;58267;51.156;17.044;2023-01-27T02:41:03;100629.65;;;5.33;43.33
70690;BME280;58267;51.156;17.044;2023-01-27T02:43:25;100629.80;;;5.21;43.10
70690;BME280;58267;51.156;17.044;2023-01-27T02:45:54;100627.62;;;5.45;43.07
70690;BME280;58267;51.156;17.044;2023-01-27T02:48:19;100628.57;;;5.33;43.30
70690;BME280;58267;51.156;17.044;2023-01-27T02:50:45;100627.39;;;5.34;43.20
70690;BME280;58267;51.156;17.044;2023-01-27T02:53:10;100628.15;;;5.20;43.49
70690;BME280;58267;51.156;17.044;2023-01-27T02:55:36;100626.75;;;5.28;43.41
70690;BME280;58267;51.156;17.044;2023-01-27T02:58:01;100627.09;;;5.18;43.20
70690;BME280;58267;51.156;17.044;2023-01-27T03:00:27;100626.22;;;5.49;42.98
70690;BME280;58267;51.156;17.044;2023-01-27T03:02:53;100626.33;;;4.89;43.17
70690;BME280;58267;51.156;17.044;2023-01-27T03:05:19;100628.37;;;5.30;43.32
70690;BME280;58267;51.156;17.044;2023-01-27T03:07:44;100628.59;;;5.29;43.38
70690;BME280;58267;51.156;17.044;2023-01-27T03:10:10;100628.41;;;5.07;43.35
70690;BME280;58267;51.156;17.044;2023-01-27T03:12:35;100630.04;;;4.81;43.27
70690;BME280;58267;51.156;17.044;2023-01-27T03:15:00;100630.25;;;4.74;43.38
70690;BME280;58267;51.156;17.044;2023-01-27T03:17:26;100631.16;;;5.13;43.59
70690;BME280;58267;51.156;17.044;2023-01-27T03:19:51;100633.48;;;5.26;43.28
70690;BME280;58267;51.156;17.044;2023-01-27T03:22:16;100632.41;;;5.10;43.27
70690;BME280;58267;51.156;17.044;2023-01-27T03:24:42;100636.21;;;5.31;43.26
70690;BME280;58267;51.156;17.044;2023-01-27T03:27:08;100643.40;;;4.63;44.35
70690;BME280;58267;51.156;17.044;2023-01-27T03:29:33;100639.63;;;4.57;44.95
70690;BME280;58267;51.156;17.044;2023-01-27T03:31:59;100638.88;;;3.98;45.57
70690;BME280;58267;51.156;17.044;2023-01-27T03:34:24;100638.42;;;4.18;45.74
70690;BME280;58267;51.156;17.044;2023-01-27T03:36:50;100638.33;;;3.12;47.69
70690;BME280;58267;51.156;17.044;2023-01-27T03:39:15;100632.30;;;2.16;49.97
70690;BME280;58267;51.156;17.044;2023-01-27T03:41:40;100637.08;;;1.44;52.73
70690;BME280;58267;51.156;17.044;2023-01-27T03:44:06;100632.94;;;1.71;52.23
70690;BME280;58267;51.156;17.044;2023-01-27T03:46:31;100635.68;;;0.37;55.21
70690;BME280;58267;51.156;17.044;2023-01-27T03:48:57;100633.56;;;1.43;54.23
70690;BME280;58267;51.156;17.044;2023-01-27T03:51:23;100637.21;;;1.39;53.44
70690;BME280;58267;51.156;17.044;2023-01-27T03:53:48;100639.90;;;0.93;54.31
70690;BME280;58267;51.156;17.044;2023-01-27T03:56:14;100638.18;;;2.13;52.01
70690;BME280;58267;51.156;17.044;2023-01-27T03:58:39;100637.62;;;1.57;52.84
70690;BME280;58267;51.156;17.044;2023-01-27T04:01:07;100638.13;;;0.42;55.31
70690;BME280;58267;51.156;17.044;2023-01-27T04:03:31;100636.96;;;0.81;55.27
70690;BME280;58267;51.156;17.044;2023-01-27T04:05:55;100642.55;;;-0.49;58.83
70690;BME280;58267;51.156;17.044;2023-01-27T04:08:20;100634.83;;;0.79;55.96
70690;BME280;58267;51.156;17.044;2023-01-27T04:10:45;100634.08;;;0.26;56.79
70690;BME280;58267;51.156;17.044;2023-01-27T04:13:10;100632.93;;;0.56;55.93
70690;BME280;58267;51.156;17.044;2023-01-27T04:15:36;100634.98;;;-0.57;58.49
70690;BME280;58267;51.156;17.044;2023-01-27T04:18:02;100628.02;;;0.45;57.31
70690;BME280;58267;51.156;17.044;2023-01-27T04:20:27;100632.55;;;0.12;58.03
70690;BME280;58267;51.156;17.044;2023-01-27T04:22:53;100633.30;;;-0.04;57.93
70690;BME280;58267;51.156;17.044;2023-01-27T04:25:18;100637.87;;;-0.04;58.58
70690;BME280;58267;51.156;17.044;2023-01-27T04:27:43;100633.76;;;0.72;55.89
70690;BME280;58267;51.156;17.044;2023-01-27T04:30:10;100633.52;;;0.57;55.99
70690;BME280;58267;51.156;17.044;2023-01-27T04:32:35;100632.79;;;-0.07;57.27
70690;BME280;58267;51.156;17.044;2023-01-27T04:35:01;100635.40;;;0.51;56.05
70690;BME280;58267;51.156;17.044;2023-01-27T04:37:26;100638.33;;;0.22;56.61
70690;BME280;58267;51.156;17.044;2023-01-27T04:39:51;100640.74;;;0.57;56.12
70690;BME280;58267;51.156;17.044;2023-01-27T04:42:17;100641.61;;;0.53;56.09
70690;BME280;58267;51.156;17.044;2023-01-27T04:44:43;100635.09;;;1.14;54.56
70690;BME280;58267;51.156;17.044;2023-01-27T04:47:08;100637.42;;;1.81;53.47
70690;BME280;58267;51.156;17.044;2023-01-27T04:49:34;100640.15;;;1.44;53.55
70690;BME280;58267;51.156;17.044;2023-01-27T04:51:59;100644.20;;;1.61;53.08
70690;BME280;58267;51.156;17.044;2023-01-27T04:54:24;100644.30;;;1.19;54.24
70690;BME280;58267;51.156;17.044;2023-01-27T04:56:55;100644.92;;;0.78;55.41
70690;BME280;58267;51.156;17.044;2023-01-27T04:59:14;100645.82;;;0.98;53.91
70690;BME280;58267;51.156;17.044;2023-01-27T05:01:40;100644.60;;;1.43;54.01
70690;BME280;58267;51.156;17.044;2023-01-27T05:04:05;100645.78;;;1.61;53.18
70690;BME280;58267;51.156;17.044;2023-01-27T05:06:30;100646.78;;;0.12;57.08
70690;BME280;58267;51.156;17.044;2023-01-27T05:08:56;100657.04;;;-0.92;59.52
70690;BME280;58267;51.156;17.044;2023-01-27T05:11:21;100657.41;;;-0.44;59.14
70690;BME280;58267;51.156;17.044;2023-01-27T05:13:46;100659.80;;;0.24;57.34
70690;BME280;58267;51.156;17.044;2023-01-27T05:16:13;100658.62;;;1.04;55.25
70690;BME280;58267;51.156;17.044;2023-01-27T05:18:38;100661.81;;;1.28;54.71
70690;BME280;58267;51.156;17.044;2023-01-27T05:21:04;100663.32;;;0.77;56.64
70690;BME280;58267;51.156;17.044;2023-01-27T05:23:29;100666.43;;;1.25;54.81
70690;BME280;58267;51.156;17.044;2023-01-27T05:25:55;100668.73;;;1.42;54.47
70690;BME280;58267;51.156;17.044;2023-01-27T05:28:21;100669.99;;;2.23;52.96
70690;BME280;58267;51.156;17.044;2023-01-27T05:30:46;100672.52;;;2.74;51.87
70690;BME280;58267;51.156;17.044;2023-01-27T05:33:12;100673.95;;;1.90;52.83
70690;BME280;58267;51.156;17.044;2023-01-27T05:35:37;100672.55;;;2.73;50.86
70690;BME280;58267;51.156;17.044;2023-01-27T05:38:02;100673.31;;;1.49;53.01
70690;BME280;58267;51.156;17.044;2023-01-27T05:40:28;100671.34;;;1.72;53.29
70690;BME280;58267;51.156;17.044;2023-01-27T05:42:53;100676.48;;;1.88;52.46
70690;BME280;58267;51.156;17.044;2023-01-27T05:45:18;100675.41;;;1.69;53.35
70690;BME280;58267;51.156;17.044;2023-01-27T05:47:47;100677.22;;;1.90;52.97
70690;BME280;58267;51.156;17.044;2023-01-27T05:50:10;100680.68;;;1.80;53.11
70690;BME280;58267;51.156;17.044;2023-01-27T05:52:34;100679.62;;;2.38;51.97
70690;BME280;58267;51.156;17.044;2023-01-27T05:55:00;100684.56;;;1.60;52.89
70690;BME280;58267;51.156;17.044;2023-01-27T05:57:26;100684.17;;;2.53;51.47
70690;BME280;58267;51.156;17.044;2023-01-27T05:59:51;100690.08;;;0.43;55.34
70690;BME280;58267;51.156;17.044;2023-01-27T06:02:17;100691.61;;;0.64;55.50
70690;BME280;58267;51.156;17.044;2023-01-27T06:04:42;100693.60;;;0.67;55.86
70690;BME280;58267;51.156;17.044;2023-01-27T06:07:08;100688.07;;;2.10;52.62
70690;BME280;58267;51.156;17.044;2023-01-27T06:09:33;100691.96;;;1.90;52.45
70690;BME280;58267;51.156;17.044;2023-01-27T06:11:58;100691.92;;;0.41;55.61
70690;BME280;58267;51.156;17.044;2023-01-27T06:14:24;100696.13;;;1.56;54.42
70690;BME280;58267;51.156;17.044;2023-01-27T06:16:50;100699.11;;;1.33;54.37
70690;BME280;58267;51.156;17.044;2023-01-27T06:19:15;100704.50;;;1.48;54.16
70690;BME280;58267;51.156;17.044;2023-01-27T06:21:40;100706.47;;;2.44;52.69
70690;BME280;58267;51.156;17.044;2023-01-27T06:24:06;100709.52;;;1.57;53.31
70690;BME280;58267;51.156;17.044;2023-01-27T06:26:31;100710.02;;;1.26;54.98
70690;BME280;58267;51.156;17.044;2023-01-27T06:28:57;100709.25;;;1.76;53.57
70690;BME280;58267;51.156;17.044;2023-01-27T06:31:23;100713.51;;;2.10;52.96
70690;BME280;58267;51.156;17.044;2023-01-27T06:33:49;100713.82;;;1.25;54.52
70690;BME280;58267;51.156;17.044;2023-01-27T06:36:16;100715.56;;;0.99;55.09
70690;BME280;58267;51.156;17.044;2023-01-27T06:38:39;100715.71;;;1.68;53.29
70690;BME280;58267;51.156;17.044;2023-01-27T06:41:05;100719.48;;;2.09;52.60
70690;BME280;58267;51.156;17.044;2023-01-27T06:43:30;100716.63;;;2.63;51.32
70690;BME280;58267;51.156;17.044;2023-01-27T06:45:55;100718.74;;;3.34;50.20
70690;BME280;58267;51.156;17.044;2023-01-27T06:48:21;100722.04;;;1.03;54.82
70690;BME280;58267;51.156;17.044;2023-01-27T06:50:46;100722.36;;;2.02;53.21
70690;BME280;58267;51.156;17.044;2023-01-27T06:53:12;100724.20;;;2.05;53.18
70690;BME280;58267;51.156;17.044;2023-01-27T06:55:38;100723.33;;;2.92;51.66
70690;BME280;58267;51.156;17.044;2023-01-27T06:58:03;100718.81;;;2.53;52.01
70690;BME280;58267;51.156;17.044;2023-01-27T07:00:29;100722.24;;;3.22;51.26
70690;BME280;58267;51.156;17.044;2023-01-27T07:02:54;100722.66;;;2.33;52.29
70690;BME280;58267;51.156;17.044;2023-01-27T07:05:19;100723.71;;;1.94;53.08
70690;BME280;58267;51.156;17.044;2023-01-27T07:07:44;100723.07;;;1.87;53.12
70690;BME280;58267;51.156;17.044;2023-01-27T07:10:11;100718.76;;;2.53;51.52
70690;BME280;58267;51.156;17.044;2023-01-27T07:12:36;100719.71;;;2.67;51.21
70690;BME280;58267;51.156;17.044;2023-01-27T07:15:01;100719.28;;;2.99;50.57
70690;BME280;58267;51.156;17.044;2023-01-27T07:17:27;100722.69;;;1.72;53.40
70690;BME280;58267;51.156;17.044;2023-01-27T07:19:52;100726.16;;;0.77;54.79
70690;BME280;58267;51.156;17.044;2023-01-27T07:22:18;100724.92;;;1.58;53.94
70690;BME280;58267;51.156;17.044;2023-01-27T07:24:43;100725.89;;;1.93;53.15
70690;BME280;58267;51.156;17.044;2023-01-27T07:27:09;100726.53;;;1.90;53.24
70690;BME280;58267;51.156;17.044;2023-01-27T07:29:35;100725.10;;;1.50;53.38
70690;BME280;58267;51.156;17.044;2023-01-27T07:32:00;100727.30;;;1.25;54.28
70690;BME280;58267;51.156;17.044;2023-01-27T07:34:26;100727.87;;;1.45;54.54
70690;BME280;58267;51.156;17.044;2023-01-27T07:36:52;100728.64;;;1.28;54.42
70690;BME280;58267;51.156;17.044;2023-01-27T07:39:18;100730.89;;;2.40;52.38
70690;BME280;58267;51.156;17.044;2023-01-27T07:41:43;100732.97;;;2.68;51.19
70690;BME280;58267;51.156;17.044;2023-01-27T07:44:13;100739.17;;;2.28;51.13
70690;BME280;58267;51.156;17.044;2023-01-27T07:46:38;100741.51;;;1.94;52.18
70690;BME280;58267;51.156;17.044;2023-01-27T07:49:04;100741.75;;;2.13;52.47
70690;BME280;58267;51.156;17.044;2023-01-27T07:51:29;100739.52;;;2.75;51.37
70690;BME280;58267;51.156;17.044;2023-01-27T07:53:54;100734.80;;;3.06;50.16
70690;BME280;58267;51.156;17.044;2023-01-27T07:56:21;100734.73;;;3.71;48.73
70690;BME280;58267;51.156;17.044;2023-01-27T07:58:46;100737.99;;;3.66;48.30
70690;BME280;58267;51.156;17.044;2023-01-27T08:01:12;100735.76;;;4.14;47.48
70690;BME280;58267;51.156;17.044;2023-01-27T08:03:38;100736.21;;;4.16;46.79
70690;BME280;58267;51.156;17.044;2023-01-27T08:06:04;100735.56;;;3.34;48.51
70690;BME280;58267;51.156;17.044;2023-01-27T08:08:28;100733.47;;;3.14;49.17
70690;BME280;58267;51.156;17.044;2023-01-27T08:10:53;100735.51;;;2.74;49.49
70690;BME280;58267;51.156;17.044;2023-01-27T08:13:18;100739.50;;;2.52;50.23
70690;BME280;58267;51.156;17.044;2023-01-27T08:15:44;100739.20;;;3.15;49.34
70690;BME280;58267;51.156;17.044;2023-01-27T08:18:10;100743.84;;;1.89;51.35
70690;BME280;58267;51.156;17.044;2023-01-27T08:20:35;100746.78;;;2.03;52.04
70690;BME280;58267;51.156;17.044;2023-01-27T08:23:00;100746.09;;;2.72;50.44
70690;BME280;58267;51.156;17.044;2023-01-27T08:25:25;100746.85;;;2.74;49.94
70690;BME280;58267;51.156;17.044;2023-01-27T08:27:51;100749.42;;;2.74;50.56
70690;BME280;58267;51.156;17.044;2023-01-27T08:30:16;100748.35;;;3.59;49.21
70690;BME280;58267;51.156;17.044;2023-01-27T08:32:41;100749.62;;;3.69;48.22
70690;BME280;58267;51.156;17.044;2023-01-27T08:35:06;100754.12;;;4.03;47.60
70690;BME280;58267;51.156;17.044;2023-01-27T08:37:31;100753.75;;;3.60;48.29
70690;BME280;58267;51.156;17.044;2023-01-27T08:39:57;100756.47;;;3.80;47.92
70690;BME280;58267;51.156;17.044;2023-01-27T08:42:23;100759.96;;;2.59;50.91
70690;BME280;58267;51.156;17.044;2023-01-27T08:44:48;100759.80;;;3.28;49.12
70690;BME280;58267;51.156;17.044;2023-01-27T08:47:15;100764.07;;;2.79;49.60
70690;BME280;58267;51.156;17.044;2023-01-27T08:49:39;100765.47;;;3.23;49.15
70690;BME280;58267;51.156;17.044;2023-01-27T08:52:05;100771.44;;;1.23;53.55
70690;BME280;58267;51.156;17.044;2023-01-27T08:54:30;100769.20;;;2.33;51.64
70690;BME280;58267;51.156;17.044;2023-01-27T08:56:56;100769.99;;;3.27;49.99
70690;BME280;58267;51.156;17.044;2023-01-27T08:59:24;100766.75;;;2.96;50.32
70690;BME280;58267;51.156;17.044;2023-01-27T09:01:49;100764.40;;;3.70;49.35
70690;BME280;58267;51.156;17.044;2023-01-27T09:04:14;100763.65;;;3.91;48.03
70690;BME280;58267;51.156;17.044;2023-01-27T09:06:40;100767.09;;;3.94;48.52
70690;BME280;58267;51.156;17.044;2023-01-27T09:09:06;100775.91;;;1.89;50.99
70690;BME280;58267;51.156;17.044;2023-01-27T09:11:32;100773.64;;;2.92;49.33
70690;BME280;58267;51.156;17.044;2023-01-27T09:13:58;100779.56;;;3.23;49.10
70690;BME280;58267;51.156;17.044;2023-01-27T09:16:23;100779.64;;;3.80;48.17
70690;BME280;58267;51.156;17.044;2023-01-27T09:18:48;100779.77;;;4.00;47.35
70690;BME280;58267;51.156;17.044;2023-01-27T09:21:14;100790.42;;;3.37;48.21
70690;BME280;58267;51.156;17.044;2023-01-27T09:23:39;100792.11;;;2.65;50.18
70690;BME280;58267;51.156;17.044;2023-01-27T09:26:05;100797.70;;;1.91;51.68
70690;BME280;58267;51.156;17.044;2023-01-27T09:28:30;100797.84;;;2.61;50.91
70690;BME280;58267;51.156;17.044;2023-01-27T09:30:56;100795.75;;;3.23;48.78
70690;BME280;58267;51.156;17.044;2023-01-27T09:33:21;100800.82;;;2.49;50.34
70690;BME280;58267;51.156;17.044;2023-01-27T09:35:50;100802.24;;;1.82;52.16
70690;BME280;58267;51.156;17.044;2023-01-27T09:38:19;100800.86;;;2.47;51.27
70690;BME280;58267;51.156;17.044;2023-01-27T09:40:47;100801.19;;;2.95;50.10
70690;BME280;58267;51.156;17.044;2023-01-27T09:43:13;100804.20;;;3.06;49.79
70690;BME280;58267;51.156;17.044;2023-01-27T09:45:39;100808.60;;;3.05;48.90
70690;BME280;58267;51.156;17.044;2023-01-27T09:48:09;100812.42;;;2.34;50.18
70690;BME280;58267;51.156;17.044;2023-01-27T09:50:32;100815.02;;;2.03;52.19
70690;BME280;58267;51.156;17.044;2023-01-27T09:53:02;100816.05;;;2.79;50.47
70690;BME280;58267;51.156;17.044;2023-01-27T09:55:16;100813.31;;;3.32;49.45
70690;BME280;58267;51.156;17.044;2023-01-27T09:57:42;100811.17;;;3.37;48.75
70690;BME280;58267;51.156;17.044;2023-01-27T10:00:12;100808.14;;;3.55;47.83
70690;BME280;58267;51.156;17.044;2023-01-27T10:02:38;100806.69;;;3.86;47.52
70690;BME280;58267;51.156;17.044;2023-01-27T10:09:59;100801.72;;;2.79;50.23
70690;BME280;58267;51.156;17.044;2023-01-27T10:12:22;100800.82;;;3.10;49.89
70690;BME280;58267;51.156;17.044;2023-01-27T10:14:44;100797.41;;;3.47;48.80
70690;BME280;58267;51.156;17.044;2023-01-27T10:17:16;100798.57;;;3.31;49.09
70690;BME280;58267;51.156;17.044;2023-01-27T10:19:45;100800.58;;;3.47;49.44
70690;BME280;58267;51.156;17.044;2023-01-27T10:21:59;100799.05;;;3.13;49.62
70690;BME280;58267;51.156;17.044;2023-01-27T10:24:27;100801.62;;;3.07;50.47
70690;BME280;58267;51.156;17.044;2023-01-27T10:26:49;100799.14;;;2.99;50.00
70690;BME280;58267;51.156;17.044;2023-01-27T10:29:11;100796.47;;;3.64;48.58
70690;BME280;58267;51.156;17.044;2023-01-27T10:31:39;100793.25;;;3.69;48.71
70690;BME280;58267;51.156;17.044;2023-01-27T10:34:17;100794.69;;;3.35;50.12
70690;BME280;58267;51.156;17.044;2023-01-27T10:36:34;100796.99;;;3.51;49.43
70690;BME280;58267;51.156;17.044;2023-01-27T10:39:02;100796.29;;;3.09;49.79
70690;BME280;58267;51.156;17.044;2023-01-27T10:41:26;100796.31;;;3.31;49.07
70690;BME280;58267;51.156;17.044;2023-01-27T10:43:50;100792.04;;;3.65;48.50
70690;BME280;58267;51.156;17.044;2023-01-27T10:46:18;100792.19;;;3.89;47.80
70690;BME280;58267;51.156;17.044;2023-01-27T10:48:37;100788.42;;;4.06;46.65
70690;BME280;58267;51.156;17.044;2023-01-27T10:51:02;100796.87;;;4.59;46.28
70690;BME280;58267;51.156;17.044;2023-01-27T10:53:31;100794.99;;;4.57;46.12
70690;BME280;58267;51.156;17.044;2023-01-27T10:55:56;100795.16;;;4.57;45.74
70690;BME280;58267;51.156;17.044;2023-01-27T10:58:28;100797.06;;;4.94;45.76
70690;BME280;58267;51.156;17.044;2023-01-27T11:00:44;100796.84;;;4.79;45.41
70690;BME280;58267;51.156;17.044;2023-01-27T11:03:14;100796.54;;;4.80;45.44
70690;BME280;58267;51.156;17.044;2023-01-27T11:05:36;100798.72;;;5.15;45.28
70690;BME280;58267;51.156;17.044;2023-01-27T11:08:00;100801.88;;;4.79;45.31
70690;BME280;58267;51.156;17.044;2023-01-27T11:10:26;100801.79;;;5.04;45.20
70690;BME280;58267;51.156;17.044;2023-01-27T11:12:52;100800.01;;;4.86;45.12
70690;BME280;58267;51.156;17.044;2023-01-27T11:15:18;100800.98;;;4.87;45.03
70690;BME280;58267;51.156;17.044;2023-01-27T11:17:45;100801.10;;;4.87;44.87
70690;BME280;58267;51.156;17.044;2023-01-27T11:20:11;100797.55;;;4.86;44.99
70690;BME280;58267;51.156;17.044;2023-01-27T11:22:36;100798.50;;;4.88;45.03
70690;BME280;58267;51.156;17.044;2023-01-27T11:25:01;100797.83;;;4.96;44.83
70690;BME280;58267;51.156;17.044;2023-01-27T11:27:33;100798.34;;;4.99;44.68
70690;BME280;58267;51.156;17.044;2023-01-27T11:29:51;100797.27;;;5.08;44.61
70690;BME280;58267;51.156;17.044;2023-01-27T11:32:27;100792.90;;;5.08;44.53
70690;BME280;58267;51.156;17.044;2023-01-27T11:34:48;100791.66;;;5.27;44.28
70690;BME280;58267;51.156;17.044;2023-01-27T11:37:11;100791.56;;;5.31;44.03
70690;BME280;58267;51.156;17.044;2023-01-27T11:39:30;100791.27;;;5.24;44.06
70690;BME280;58267;51.156;17.044;2023-01-27T11:41:54;100792.10;;;4.78;43.86
70690;BME280;58267;51.156;17.044;2023-01-27T11:44:21;100791.48;;;5.29;43.93
70690;BME280;58267;51.156;17.044;2023-01-27T11:46:46;100795.90;;;5.25;43.92
70690;BME280;58267;51.156;17.044;2023-01-27T11:49:11;100795.67;;;5.11;44.21
70690;BME280;58267;51.156;17.044;2023-01-27T11:51:40;100792.57;;;5.30;43.97
70690;BME280;58267;51.156;17.044;2023-01-27T11:54:13;100793.21;;;5.20;43.76
70690;BME280;58267;51.156;17.044;2023-01-27T11:56:32;100796.29;;;5.22;43.67
70690;BME280;58267;51.156;17.044;2023-01-27T11:59:00;100798.53;;;5.36;43.57
70690;BME280;58267;51.156;17.044;2023-01-27T12:01:32;100802.55;;;5.06;43.70
70690;BME280;58267;51.156;17.044;2023-01-27T12:03:53;100799.59;;;5.01;43.75
70690;BME280;58267;51.156;17.044;2023-01-27T12:06:16;100801.70;;;5.14;43.62
70690;BME280;58267;51.156;17.044;2023-01-27T12:08:42;100798.16;;;5.01;43.65
70690;BME280;58267;51.156;17.044;2023-01-27T12:11:17;100797.68;;;4.90;43.56
70690;BME280;58267;51.156;17.044;2023-01-27T12:13:31;100797.97;;;5.19;43.68
70690;BME280;58267;51.156;17.044;2023-01-27T12:16:00;100794.89;;;5.23;43.52
70690;BME280;58267;51.156;17.044;2023-01-27T12:18:22;100791.88;;;5.31;43.49
70690;BME280;58267;51.156;17.044;2023-01-27T12:20:49;100793.57;;;4.87;43.75
70690;BME280;58267;51.156;17.044;2023-01-27T12:23:19;100787.74;;;5.02;43.70
70690;BME280;58267;51.156;17.044;2023-01-27T12:25:42;100785.70;;;5.17;43.50
70690;BME280;58267;51.156;17.044;2023-01-27T12:28:04;100782.95;;;5.37;43.47
70690;BME280;58267;51.156;17.044;2023-01-27T12:30:32;100780.45;;;4.93;43.69
70690;BME280;58267;51.156;17.044;2023-01-27T12:32:55;100781.54;;;4.87;43.80
70690;BME280;58267;51.156;17.044;2023-01-27T12:35:22;100782.63;;;5.01;43.80
70690;BME280;58267;51.156;17.044;2023-01-27T12:37:45;100786.81;;;5.29;43.63
70690;BME280;58267;51.156;17.044;2023-01-27T12:40:17;100784.34;;;5.13;43.65
70690;BME280;58267;51.156;17.044;2023-01-27T12:42:38;100785.11;;;5.24;43.74
70690;BME280;58267;51.156;17.044;2023-01-27T12:47:28;100775.74;;;5.47;43.34
70690;BME280;58267;51.156;17.044;2023-01-27T12:52:20;100778.05;;;5.49;43.36